Crosby Hunter — WDH3350 — position and weather

sailwx.info

Track history (hours):
 
Tides and Currents Weather Stations Pressure Air Temp Water Temp Dewpoint Dewpoint Depression Visibility Wind Speed Wind Dir Waves Ship Positions

Crosby Hunter

Owner: Crosby Marine Transportation, LLC, Galliano, LA. More information available from US FCC via Universal Licensing System and Coast Guard Vessel Documentation Center.

Last reported at 2017-Dec-24 05:30 UTC. Time now 2018-Jan-24 05:50 UTC.
Position N 29°32' W 090°50'.
Warning: this ship's position is 31 days out of date.

Length 22 m; draft 3.9 m.

Type: Tug. MMSI: 367069420.

Date/timePositionNaut miles runAvg speedWind from/ knotsBaromVisibWave heightAir tempDewpointWater temp
2017-Dec-24 05:30N 29°32' W 090°50'4 7.3
2017-Dec-24 05:00N 29°33' W 090°46'3 5.6
2017-Dec-24 04:30N 29°34' W 090°43'4 7.4
2017-Dec-24 04:00N 29°30' W 090°43'4 7.9
2017-Dec-24 03:30N 29°26' W 090°43'1 0.1
2017-Dec-23 19:44N 29°25' W 090°43'2 6.7
2017-Dec-23 19:30N 29°27' W 090°43'3 6.7
2017-Dec-23 19:00N 29°30' W 090°43'3 6.3
2017-Dec-23 18:30N 29°33' W 090°42'0 0.4
2017-Dec-23 18:00N 29°34' W 090°42'1 1.3
2017-Dec-23 17:30N 29°33' W 090°42'0 0.6
2017-Dec-23 17:00N 29°33' W 090°42'0 0.0
2017-Dec-23 16:30N 29°33' W 090°42'0 0.0
2017-Dec-23 16:00N 29°33' W 090°42'0 0.0
2017-Dec-23 15:30N 29°33' W 090°42'0 0.0
2017-Dec-23 15:00N 29°33' W 090°42'0 0.0
2017-Dec-23 14:30N 29°33' W 090°42'0 0.0
2017-Dec-23 14:00N 29°33' W 090°42'0 0.0
2017-Dec-23 13:30N 29°33' W 090°42'0 0.0
2017-Dec-23 13:00N 29°33' W 090°42'0 0.0
2017-Dec-23 12:30N 29°33' W 090°42'0 0.0
2017-Dec-23 12:00N 29°33' W 090°42'0 0.0
2017-Dec-23 11:30N 29°33' W 090°42'0 0.0
2017-Dec-23 11:00N 29°33' W 090°42'0 0.0
2017-Dec-23 10:30N 29°33' W 090°42'0 0.0
2017-Dec-23 10:00N 29°33' W 090°42'0 0.0
2017-Dec-23 09:30N 29°33' W 090°42'0 0.0
2017-Dec-23 09:00N 29°33' W 090°42'0 0.0
2017-Dec-23 08:30N 29°33' W 090°42'0 0.0
2017-Dec-23 08:00N 29°33' W 090°42'0 0.0
2017-Dec-23 07:30N 29°33' W 090°42'0 0.0
2017-Dec-23 07:00N 29°33' W 090°42'0 0.0
2017-Dec-23 06:30N 29°33' W 090°42'0 0.0
2017-Dec-23 06:00N 29°33' W 090°42'0 0.0
2017-Dec-23 05:30N 29°33' W 090°42'0 0.0
2017-Dec-23 05:00N 29°33' W 090°42'0 0.0
2017-Dec-23 04:30N 29°33' W 090°42'0 0.0
2017-Dec-23 04:00N 29°33' W 090°42'0 0.0
2017-Dec-23 03:30N 29°33' W 090°42'0 0.0
2017-Dec-23 03:00N 29°33' W 090°42'0 0.0
2017-Dec-23 02:30N 29°33' W 090°42'0 0.0
2017-Dec-23 02:00N 29°33' W 090°42'0 0.0
2017-Dec-23 01:30N 29°33' W 090°42'0 0.0
2017-Dec-23 01:00N 29°33' W 090°42'0 0.0
2017-Dec-23 00:30N 29°33' W 090°42'0 0.0
2017-Dec-23 00:00N 29°33' W 090°42'0 0.0
2017-Dec-22 23:30N 29°33' W 090°42'0 0.0
2017-Dec-22 23:00N 29°33' W 090°42'1 1.3
2017-Dec-22 22:30N 29°33' W 090°42'2 4.2
2017-Dec-22 22:00N 29°34' W 090°45'4 7.8
2017-Dec-22 21:30N 29°32' W 090°49'5 8.4
2017-Dec-22 20:55N 29°33' W 090°54'18 0.4
2017-Dec-21 03:54N 29°40' W 091°14'5 6.5
2017-Dec-21 03:06N 29°40' W 091°08'  
2017-Dec-15 04:27N 29°18' W 091°27'  
Track history (hours):
 
Tides and Currents Weather Stations Pressure Air Temp Water Temp Dewpoint Dewpoint Depression Visibility Wind Speed Wind Dir Waves Ship Positions

Crosby Hunter

Owner: Crosby Marine Transportation, LLC, Galliano, LA. More information available from US FCC via Universal Licensing System and Coast Guard Vessel Documentation Center.

Last reported at 2017-Dec-24 05:30 UTC. Time now 2018-Jan-24 05:50 UTC.
Position N 29°32' W 090°50'.
Warning: this ship's position is 31 days out of date.

Length 22 m; draft 3.9 m.

Type: Tug. MMSI: 367069420.

Date/timePositionNaut miles runAvg speedWind from/ knotsBaromVisibWave heightAir tempDewpointWater temp
2017-Dec-24 05:30N 29°32' W 090°50'4 7.3
2017-Dec-24 05:00N 29°33' W 090°46'3 5.6
2017-Dec-24 04:30N 29°34' W 090°43'4 7.4
2017-Dec-24 04:00N 29°30' W 090°43'4 7.9
2017-Dec-24 03:30N 29°26' W 090°43'1 0.1
2017-Dec-23 19:44N 29°25' W 090°43'2 6.7
2017-Dec-23 19:30N 29°27' W 090°43'3 6.7
2017-Dec-23 19:00N 29°30' W 090°43'3 6.3
2017-Dec-23 18:30N 29°33' W 090°42'0 0.4
2017-Dec-23 18:00N 29°34' W 090°42'1 1.3
2017-Dec-23 17:30N 29°33' W 090°42'0 0.6
2017-Dec-23 17:00N 29°33' W 090°42'0 0.0
2017-Dec-23 16:30N 29°33' W 090°42'0 0.0
2017-Dec-23 16:00N 29°33' W 090°42'0 0.0
2017-Dec-23 15:30N 29°33' W 090°42'0 0.0
2017-Dec-23 15:00N 29°33' W 090°42'0 0.0
2017-Dec-23 14:30N 29°33' W 090°42'0 0.0
2017-Dec-23 14:00N 29°33' W 090°42'0 0.0
2017-Dec-23 13:30N 29°33' W 090°42'0 0.0
2017-Dec-23 13:00N 29°33' W 090°42'0 0.0
2017-Dec-23 12:30N 29°33' W 090°42'0 0.0
2017-Dec-23 12:00N 29°33' W 090°42'0 0.0
2017-Dec-23 11:30N 29°33' W 090°42'0 0.0
2017-Dec-23 11:00N 29°33' W 090°42'0 0.0
2017-Dec-23 10:30N 29°33' W 090°42'0 0.0
2017-Dec-23 10:00N 29°33' W 090°42'0 0.0
2017-Dec-23 09:30N 29°33' W 090°42'0 0.0
2017-Dec-23 09:00N 29°33' W 090°42'0 0.0
2017-Dec-23 08:30N 29°33' W 090°42'0 0.0
2017-Dec-23 08:00N 29°33' W 090°42'0 0.0
2017-Dec-23 07:30N 29°33' W 090°42'0 0.0
2017-Dec-23 07:00N 29°33' W 090°42'0 0.0
2017-Dec-23 06:30N 29°33' W 090°42'0 0.0
2017-Dec-23 06:00N 29°33' W 090°42'0 0.0
2017-Dec-23 05:30N 29°33' W 090°42'0 0.0
2017-Dec-23 05:00N 29°33' W 090°42'0 0.0
2017-Dec-23 04:30N 29°33' W 090°42'0 0.0
2017-Dec-23 04:00N 29°33' W 090°42'0 0.0
2017-Dec-23 03:30N 29°33' W 090°42'0 0.0
2017-Dec-23 03:00N 29°33' W 090°42'0 0.0
2017-Dec-23 02:30N 29°33' W 090°42'0 0.0
2017-Dec-23 02:00N 29°33' W 090°42'0 0.0
2017-Dec-23 01:30N 29°33' W 090°42'0 0.0
2017-Dec-23 01:00N 29°33' W 090°42'0 0.0
2017-Dec-23 00:30N 29°33' W 090°42'0 0.0
2017-Dec-23 00:00N 29°33' W 090°42'0 0.0
2017-Dec-22 23:30N 29°33' W 090°42'0 0.0
2017-Dec-22 23:00N 29°33' W 090°42'1 1.3
2017-Dec-22 22:30N 29°33' W 090°42'2 4.2
2017-Dec-22 22:00N 29°34' W 090°45'4 7.8
2017-Dec-22 21:30N 29°32' W 090°49'5 8.4
2017-Dec-22 20:55N 29°33' W 090°54'18 0.4
2017-Dec-21 03:54N 29°40' W 091°14'5 6.5
2017-Dec-21 03:06N 29°40' W 091°08'  
2017-Dec-15 04:27N 29°18' W 091°27'  

Dump ship's entire track history